Time;durP1;ratioP1;P1;durP2;ratioP2;P2;SDS_P1;SDS_P2;PMS_P1;PMS_P2;Temp;Humidity;BMP_temperature;BMP_pressure;BME280_temperature;BME280_humidity;BME280_pressure;Samples;Min_cycle;Max_cycle;Signal;HPM_P1;HPM_P2
2023/07/04 00:00:39;;;;;;;1.07;0.87;;;17.30;99.90;;;;;;5034685;28;20467;-71
2023/07/04 00:03:05;;;;;;;1.27;1.17;;;17.30;99.90;;;;;;5034402;28;20250;-72
2023/07/04 00:05:30;;;;;;;1.30;1.20;;;17.30;99.90;;;;;;5034763;28;20570;-71
2023/07/04 00:07:57;;;;;;;3.13;1.07;;;17.30;99.90;;;;;;5034348;28;20216;-75
2023/07/04 00:10:23;;;;;;;1.47;0.93;;;17.30;99.90;;;;;;5034402;28;20159;-71
2023/07/04 00:12:48;;;;;;;0.83;0.83;;;17.20;99.90;;;;;;5034178;28;20430;-75
2023/07/04 00:15:14;;;;;;;2.03;1.30;;;17.20;99.90;;;;;;5034371;28;20251;-73
2023/07/04 00:17:42;;;;;;;1.37;1.27;;;17.20;99.90;;;;;;5034249;28;20241;-72
2023/07/04 00:20:09;;;;;;;1.60;1.00;;;17.20;99.90;;;;;;5034298;28;20274;-71
2023/07/04 00:22:39;;;;;;;0.50;0.50;;;17.20;99.90;;;;;;5034210;28;20853;-74
2023/07/04 00:25:06;;;;;;;0.50;0.50;;;17.40;99.90;;;;;;5034258;28;20413;-71
2023/07/04 00:27:32;;;;;;;1.13;0.80;;;17.40;99.90;;;;;;5033952;28;20457;-72
2023/07/04 00:29:58;;;;;;;0.87;0.60;;;17.30;99.90;;;;;;5034274;28;20394;-73
2023/07/04 00:32:24;;;;;;;0.60;0.60;;;17.20;99.90;;;;;;5033858;28;20809;-73
2023/07/04 00:34:50;;;;;;;1.60;0.97;;;17.20;99.90;;;;;;5034072;28;20202;-74
2023/07/04 00:37:21;;;;;;;0.60;0.60;;;17.20;99.90;;;;;;5033875;28;20194;-74
2023/07/04 00:39:47;;;;;;;0.80;0.77;;;17.20;99.90;;;;;;5034019;28;20394;-71
2023/07/04 00:42:13;;;;;;;0.50;0.50;;;17.20;99.90;;;;;;5033690;28;20463;-72
2023/07/04 00:44:44;;;;;;;0.73;0.73;;;17.30;99.90;;;;;;5033824;28;20401;-74
2023/07/04 00:47:21;;;;;;;1.00;0.97;;;17.20;99.90;;;;;;5033720;28;20203;-73
2023/07/04 00:49:49;;;;;;;1.23;0.83;;;17.20;99.90;;;;;;5033986;28;20496;-74
2023/07/04 00:52:25;;;;;;;1.43;1.00;;;17.20;99.90;;;;;;5033588;28;20779;-74
2023/07/04 00:55:00;;;;;;;0.50;0.50;;;17.10;99.90;;;;;;5033671;28;20449;-73
2023/07/04 00:57:31;;;;;;;2.57;1.00;;;17.00;99.90;;;;;;5033634;28;20424;-71
2023/07/04 00:59:58;;;;;;;3.80;0.90;;;17.00;99.90;;;;;;5033887;28;20398;-71
2023/07/04 01:02:28;;;;;;;0.63;0.63;;;16.90;99.90;;;;;;5033561;28;20404;-72
2023/07/04 01:04:54;;;;;;;1.07;0.97;;;16.90;99.90;;;;;;5033743;28;20398;-72
2023/07/04 01:07:27;;;;;;;0.60;0.60;;;16.80;99.90;;;;;;5033659;28;20476;-73
2023/07/04 01:10:06;;;;;;;1.00;1.00;;;16.80;99.90;;;;;;5033698;28;20402;-73
2023/07/04 01:12:33;;;;;;;0.50;0.50;;;16.90;99.90;;;;;;5033487;28;20408;-71
2023/07/04 01:15:01;;;;;;;0.70;0.60;;;16.80;99.90;;;;;;5033519;28;20408;-71
2023/07/04 01:17:28;;;;;;;0.40;0.40;;;16.90;99.90;;;;;;5033387;28;20525;-73
2023/07/04 01:19:54;;;;;;;0.70;0.60;;;16.80;99.90;;;;;;5033387;28;20451;-74
2023/07/04 01:22:44;;;;;;;0.90;0.90;;;17.10;99.90;;;;;;5033267;28;20873;-74
2023/07/04 01:25:25;;;;;;;0.60;0.60;;;16.80;99.90;;;;;;5033475;28;20404;-73
2023/07/04 01:27:59;;;;;;;0.97;0.97;;;16.80;99.90;;;;;;5033163;28;20457;-73
2023/07/04 01:30:25;;;;;;;1.13;1.03;;;17.00;99.90;;;;;;5033781;28;20429;-74
2023/07/04 01:32:52;;;;;;;0.70;0.70;;;17.00;99.90;;;;;;5033135;28;20457;-71
2023/07/04 01:35:19;;;;;;;0.90;0.90;;;17.00;99.90;;;;;;5033324;28;20424;-73
2023/07/04 01:37:45;;;;;;;0.40;0.40;;;17.00;99.90;;;;;;5033189;28;20432;-71
2023/07/04 01:40:12;;;;;;;0.50;0.50;;;16.80;99.90;;;;;;5033291;28;20418;-73
2023/07/04 01:42:38;;;;;;;0.90;0.90;;;16.80;99.90;;;;;;5032963;28;20171;-73
2023/07/04 01:45:06;;;;;;;0.70;0.70;;;16.80;99.90;;;;;;5033160;28;20740;-72
2023/07/04 01:47:33;;;;;;;1.07;1.07;;;16.70;99.90;;;;;;5032997;28;20514;-71
2023/07/04 01:50:00;;;;;;;0.67;0.67;;;16.60;99.90;;;;;;5036290;28;20828;-74
2023/07/04 01:52:27;;;;;;;1.37;0.60;;;16.60;99.90;;;;;;5036825;28;20938;-73
2023/07/04 01:54:53;;;;;;;0.70;0.57;;;16.60;99.90;;;;;;5037065;28;20416;-73
2023/07/04 01:57:18;;;;;;;6.90;1.13;;;16.60;99.90;;;;;;5036971;28;20417;-73
2023/07/04 01:59:44;;;;;;;0.70;0.50;;;16.60;99.90;;;;;;5036888;28;20179;-74
2023/07/04 02:02:10;;;;;;;2.47;0.77;;;16.60;99.90;;;;;;5036962;28;20174;-73
2023/07/04 02:04:36;;;;;;;5.17;0.80;;;16.60;99.90;;;;;;5037043;28;20175;-72
2023/07/04 02:07:01;;;;;;;1.70;0.97;;;16.70;99.90;;;;;;5036850;28;20187;-72
2023/07/04 02:09:27;;;;;;;1.07;1.07;;;16.70;99.90;;;;;;5036772;28;20186;-73
2023/07/04 02:11:53;;;;;;;1.07;1.07;;;;;;;;;;5036685;28;20166;-74
2023/07/04 02:14:19;;;;;;;0.80;0.80;;;16.70;99.90;;;;;;5036691;28;20171;-72
2023/07/04 02:16:45;;;;;;;0.77;0.77;;;16.70;99.90;;;;;;5036658;28;20417;-73
2023/07/04 02:19:10;;;;;;;0.40;0.40;;;16.70;99.90;;;;;;5036832;28;20437;-73
2023/07/04 02:21:36;;;;;;;0.60;0.60;;;16.80;99.90;;;;;;5036563;28;20218;-71
2023/07/04 02:24:02;;;;;;;0.40;0.40;;;16.80;99.90;;;;;;5036594;28;20181;-73
2023/07/04 02:26:29;;;;;;;0.57;0.57;;;16.80;99.90;;;;;;5036666;28;20594;-71
2023/07/04 02:28:55;;;;;;;0.63;0.63;;;16.80;99.90;;;;;;5036338;28;20445;-74
2023/07/04 02:31:23;;;;;;;0.80;0.60;;;16.70;99.90;;;;;;5036238;28;20421;-73
2023/07/04 02:33:50;;;;;;;0.67;0.67;;;16.80;99.90;;;;;;5036403;28;20431;-73
2023/07/04 02:36:16;;;;;;;0.70;0.40;;;18.10;99.90;;;;;;5036278;28;20397;-74
2023/07/04 02:38:42;;;;;;;0.93;0.83;;;16.80;99.90;;;;;;5036154;28;20398;-73
2023/07/04 02:41:09;;;;;;;0.40;0.40;;;16.70;99.90;;;;;;5034830;28;20436;-74
2023/07/04 02:43:35;;;;;;;0.47;0.47;;;16.60;99.90;;;;;;5036140;28;20394;-74
2023/07/04 02:46:05;;;;;;;0.60;0.60;;;16.60;99.90;;;;;;5035901;28;20418;-72
2023/07/04 02:48:32;;;;;;;0.53;0.53;;;16.60;99.90;;;;;;5035939;28;20934;-75
2023/07/04 02:50:59;;;;;;;0.93;0.80;;;16.60;99.90;;;;;;5035936;28;20429;-72
2023/07/04 02:53:24;;;;;;;0.90;0.40;;;16.50;99.90;;;;;;5036080;28;20468;-71
2023/07/04 02:55:52;;;;;;;0.67;0.67;;;16.40;99.90;;;;;;5035851;28;20406;-71
2023/07/04 02:58:18;;;;;;;0.70;0.70;;;16.40;99.90;;;;;;5035819;28;20186;-73
2023/07/04 03:00:44;;;;;;;0.60;0.53;;;16.40;99.90;;;;;;5034701;28;20877;-73
2023/07/04 03:03:09;;;;;;;1.80;1.00;;;16.40;99.90;;;;;;5035736;28;20402;-74
2023/07/04 03:05:36;;;;;;;0.50;0.50;;;16.30;99.90;;;;;;5035837;28;20418;-73
2023/07/04 03:08:02;;;;;;;0.60;0.60;;;16.30;99.90;;;;;;5035694;28;20680;-74
2023/07/04 03:10:28;;;;;;;0.90;0.80;;;16.20;99.90;;;;;;5035715;28;20816;-71
2023/07/04 03:12:54;;;;;;;23.17;1.17;;;16.20;99.90;;;;;;5035476;28;20421;-75
2023/07/04 03:15:20;;;;;;;0.50;0.50;;;16.20;99.90;;;;;;5035050;28;20452;-73
2023/07/04 03:17:48;;;;;;;1.53;1.43;;;16.20;99.90;;;;;;5035415;28;20421;-73
2023/07/04 03:20:14;;;;;;;0.70;0.60;;;16.20;99.90;;;;;;5035479;28;20178;-73
2023/07/04 03:22:41;;;;;;;1.33;1.23;;;16.20;99.90;;;;;;5035433;28;20414;-74
2023/07/04 03:25:07;;;;;;;2.10;1.60;;;16.30;99.90;;;;;;5034172;28;20925;-75
2023/07/04 03:27:36;;;;;;;0.93;0.70;;;16.40;99.90;;;;;;5035325;28;20437;-73
2023/07/04 03:30:03;;;;;;;1.30;0.90;;;16.40;99.90;;;;;;5033971;28;20905;-72
2023/07/04 03:32:28;;;;;;;6.30;1.63;;;16.40;99.90;;;;;;5033755;28;20413;-71
2023/07/04 03:35:00;;;;;;;0.70;0.70;;;16.40;99.90;;;;;;5035543;28;20401;-73
2023/07/04 03:37:33;;;;;;;0.57;0.57;;;16.30;99.90;;;;;;5035045;28;20191;-73
2023/07/04 03:39:59;;;;;;;0.83;0.83;;;16.30;99.90;;;;;;5035314;28;20424;-71
2023/07/04 03:42:25;;;;;;;2.30;1.40;;;16.30;99.90;;;;;;5034837;28;20487;-73
2023/07/04 03:44:51;;;;;;;1.43;1.33;;;16.30;99.90;;;;;;5035249;28;20406;-73
2023/07/04 03:47:17;;;;;;;0.50;0.40;;;16.30;99.90;;;;;;5034750;28;20460;-72
2023/07/04 03:49:43;;;;;;;0.73;0.73;;;16.20;99.90;;;;;;5034880;28;20205;-71
2023/07/04 03:52:09;;;;;;;0.67;0.50;;;16.30;99.90;;;;;;5034664;28;20225;-74
2023/07/04 03:54:34;;;;;;;0.40;0.40;;;16.30;99.90;;;;;;5034958;28;20167;-71
2023/07/04 03:57:00;;;;;;;1.53;1.43;;;16.30;99.90;;;;;;5034816;28;20467;-72
2023/07/04 03:59:26;;;;;;;0.60;0.60;;;16.30;99.90;;;;;;5034804;28;20167;-73
2023/07/04 04:01:52;;;;;;;0.80;0.80;;;16.30;99.90;;;;;;5034458;28;20464;-72
2023/07/04 04:04:19;;;;;;;1.10;1.10;;;16.20;99.90;;;;;;5034815;28;20171;-73
2023/07/04 04:06:48;;;;;;;0.50;0.50;;;16.20;99.90;;;;;;5034554;28;20441;-72
2023/07/04 04:09:14;;;;;;;0.50;0.50;;;16.10;99.90;;;;;;5034363;28;20449;-70
2023/07/04 04:11:39;;;;;;;0.70;0.70;;;16.10;99.90;;;;;;5033989;28;20409;-71
2023/07/04 04:14:05;;;;;;;0.70;0.53;;;16.00;99.90;;;;;;5034413;28;20182;-73
2023/07/04 04:16:31;;;;;;;0.57;0.50;;;16.00;99.90;;;;;;5034446;28;20191;-70
2023/07/04 04:18:56;;;;;;;0.77;0.77;;;16.00;99.90;;;;;;5034325;28;20221;-74
2023/07/04 04:21:22;;;;;;;0.67;0.67;;;;;;;;;;5034173;28;20175;-71
2023/07/04 04:23:51;;;;;;;1.07;0.97;;;16.00;99.90;;;;;;5033149;28;20170;-71
2023/07/04 04:26:23;;;;;;;1.43;1.43;;;16.40;99.90;;;;;;5034086;28;20409;-73
2023/07/04 04:28:49;;;;;;;1.07;1.07;;;16.00;99.90;;;;;;5034335;28;20457;-73
2023/07/04 04:31:15;;;;;;;0.50;0.50;;;16.00;99.90;;;;;;5034001;28;20877;-73
2023/07/04 04:33:41;;;;;;;1.80;1.17;;;16.10;99.90;;;;;;5033983;28;20175;-73
2023/07/04 04:36:07;;;;;;;0.67;0.67;;;17.20;99.90;;;;;;5034133;28;20769;-72
2023/07/04 04:38:36;;;;;;;0.50;0.50;;;17.00;99.90;;;;;;5033925;28;20474;-73
2023/07/04 04:41:06;;;;;;;0.83;0.60;;;17.70;99.90;;;;;;5033734;28;20407;-73
2023/07/04 04:43:32;;;;;;;1.13;0.60;;;18.50;99.90;;;;;;5032580;28;20423;-74
2023/07/04 04:46:02;;;;;;;0.50;0.50;;;19.50;99.90;;;;;;5033802;28;20431;-71
2023/07/04 04:48:35;;;;;;;0.60;0.60;;;19.50;99.90;;;;;;5033908;28;20446;-72
2023/07/04 04:51:12;;;;;;;1.50;1.40;;;19.60;99.90;;;;;;5033808;28;20401;-71
2023/07/04 04:53:41;;;;;;;1.23;1.13;;;19.50;99.90;;;;;;5034206;28;20401;-73
2023/07/04 04:56:07;;;;;;;1.00;0.90;;;19.20;99.90;;;;;;5033080;28;20912;-72
2023/07/04 04:58:33;;;;;;;1.80;1.63;;;19.30;99.90;;;;;;5032911;28;20418;-73
2023/07/04 05:01:11;;;;;;;0.93;0.93;;;19.20;99.90;;;;;;5032908;28;20500;-73
2023/07/04 05:03:38;;;;;;;2.20;0.83;;;19.20;99.90;;;;;;5032514;28;20517;-70
2023/07/04 05:06:05;;;;;;;1.57;0.77;;;18.90;99.90;;;;;;5031491;28;20432;-70
2023/07/04 05:08:30;;;;;;;1.27;0.93;;;18.70;99.90;;;;;;5032917;28;20457;-72
2023/07/04 05:11:06;;;;;;;0.50;0.50;;;18.40;99.90;;;;;;5033506;28;20960;-71
2023/07/04 05:13:37;;;;;;;0.60;0.60;;;18.20;99.90;;;;;;5033526;28;20688;-72
2023/07/04 05:16:05;;;;;;;1.00;0.90;;;18.10;99.90;;;;;;5032210;28;20474;-71
2023/07/04 05:18:33;;;;;;;0.30;0.30;;;18.00;99.90;;;;;;5033419;28;20409;-71
2023/07/04 05:21:01;;;;;;;1.33;0.90;;;18.00;99.90;;;;;;5033003;28;20926;-71
2023/07/04 05:23:29;;;;;;;0.67;0.67;;;17.90;99.90;;;;;;5032942;28;20412;-69
2023/07/04 05:26:04;;;;;;;1.90;1.80;;;18.00;99.90;;;;;;5032082;28;20802;-70
2023/07/04 05:28:30;;;;;;;0.67;0.67;;;18.20;99.90;;;;;;5031979;28;20455;-71
2023/07/04 05:31:01;;;;;;;1.37;1.27;;;18.10;99.90;;;;;;5031990;28;20487;-71
2023/07/04 05:33:27;;;;;;;0.97;0.80;;;18.20;99.90;;;;;;5033243;28;20416;-71
2023/07/04 05:36:07;;;;;;;0.60;0.60;;;18.30;99.90;;;;;;5033605;28;20724;-72
2023/07/04 05:38:34;;;;;;;0.80;0.70;;;18.40;99.90;;;;;;5033186;28;20832;-72
2023/07/04 05:41:00;;;;;;;0.73;0.73;;;18.50;99.90;;;;;;5033414;28;20405;-70
2023/07/04 05:43:27;;;;;;;0.73;0.70;;;18.60;99.90;;;;;;5033257;28;20413;-72
2023/07/04 05:45:53;;;;;;;0.80;0.60;;;18.60;99.90;;;;;;5033150;28;20412;-72
2023/07/04 05:48:19;;;;;;;1.07;1.00;;;18.70;99.90;;;;;;5032564;28;20459;-70
2023/07/04 05:50:56;;;;;;;0.60;0.60;;;18.60;99.90;;;;;;5032588;28;20496;-71
2023/07/04 05:53:30;;;;;;;0.80;0.80;;;18.60;99.90;;;;;;5032940;28;20463;-72
2023/07/04 05:56:11;;;;;;;1.60;1.47;;;18.50;99.90;;;;;;5033247;28;20401;-72
2023/07/04 05:58:38;;;;;;;1.03;1.03;;;18.30;99.90;;;;;;5033112;28;20401;-71
2023/07/04 06:01:11;;;;;;;0.67;0.67;;;18.30;99.90;;;;;;5033142;28;20526;-71
2023/07/04 06:03:38;;;;;;;0.70;0.70;;;18.30;99.90;;;;;;5033551;28;20413;-72
2023/07/04 06:06:21;;;;;;;0.70;0.70;;;18.50;99.90;;;;;;5032778;28;20419;-71
2023/07/04 06:08:48;;;;;;;1.90;1.00;;;18.30;99.90;;;;;;5032755;28;20467;-71
2023/07/04 06:11:14;;;;;;;0.97;0.63;;;18.40;99.90;;;;;;5032732;28;20484;-71
2023/07/04 06:13:41;;;;;;;0.70;0.70;;;18.40;99.90;;;;;;5032890;28;20804;-72
2023/07/04 06:16:07;;;;;;;0.60;0.60;;;18.40;99.90;;;;;;5032957;28;20835;-70
2023/07/04 06:18:33;;;;;;;0.73;0.70;;;18.30;99.90;;;;;;5032800;28;20414;-71
2023/07/04 06:21:13;;;;;;;1.57;1.47;;;18.30;99.90;;;;;;5032814;28;20416;-72
2023/07/04 06:23:39;;;;;;;0.50;0.50;;;18.40;99.90;;;;;;5033009;28;20405;-70
2023/07/04 06:26:05;;;;;;;1.00;0.90;;;18.70;99.90;;;;;;5032679;28;20502;-71
2023/07/04 06:28:32;;;;;;;0.70;0.70;;;18.40;99.90;;;;;;5032721;28;20449;-71
2023/07/04 06:30:58;;;;;;;1.80;1.70;;;18.40;99.90;;;;;;5031395;28;20774;-71
2023/07/04 06:33:24;;;;;;;1.27;1.17;;;18.30;99.90;;;;;;5032888;28;20402;-70
2023/07/04 06:35:49;;;;;;;0.67;0.67;;;18.30;99.90;;;;;;5035183;28;20610;-72
2023/07/04 06:38:15;;;;;;;0.87;0.53;;;18.30;99.90;;;;;;5036132;28;20455;-72
2023/07/04 06:40:41;;;;;;;1.13;0.77;;;18.30;99.90;;;;;;5036157;28;20571;-71
2023/07/04 06:43:07;;;;;;;0.50;0.50;;;18.40;99.90;;;;;;5035698;28;20174;-72
2023/07/04 06:45:34;;;;;;;1.90;1.33;;;18.50;99.90;;;;;;5036258;28;20405;-71
2023/07/04 06:48:00;;;;;;;0.97;0.97;;;18.70;99.90;;;;;;5035835;28;20462;-71
2023/07/04 06:50:28;;;;;;;11.93;1.33;;;18.80;99.90;;;;;;5036037;28;20402;-72
2023/07/04 06:52:54;;;;;;;0.60;0.57;;;19.00;99.90;;;;;;5035861;28;20397;-70
2023/07/04 06:55:21;;;;;;;0.73;0.73;;;19.30;99.90;;;;;;5035981;28;20409;-70
2023/07/04 06:57:46;;;;;;;0.90;0.90;;;19.80;99.90;;;;;;5035707;28;20437;-70
2023/07/04 07:00:12;;;;;;;0.50;0.50;;;20.20;99.90;;;;;;5035578;28;20402;-70
2023/07/04 07:02:38;;;;;;;0.90;0.90;;;20.60;99.60;;;;;;5035495;28;20175;-70
2023/07/04 07:05:05;;;;;;;0.97;0.97;;;20.80;98.40;;;;;;5035990;28;20759;-72
2023/07/04 07:07:31;;;;;;;1.67;0.80;;;21.00;99.00;;;;;;5035992;28;20580;-70
2023/07/04 07:09:56;;;;;;;4.00;0.67;;;21.30;97.50;;;;;;5034339;28;20460;-72
2023/07/04 07:12:22;;;;;;;0.50;0.50;;;21.70;97.90;;;;;;5034173;28;20484;-71
2023/07/04 07:14:48;;;;;;;0.83;0.83;;;22.20;96.40;;;;;;5034407;28;20182;-72
2023/07/04 07:17:13;;;;;;;0.50;0.50;;;22.50;96.40;;;;;;5033641;28;20187;-72
2023/07/04 07:19:40;;;;;;;1.50;0.90;;;23.20;96.30;;;;;;5035144;28;20258;-71
2023/07/04 07:22:06;;;;;;;1.87;1.70;;;23.80;95.90;;;;;;5033945;28;20167;-71
2023/07/04 07:24:31;;;;;;;0.70;0.70;;;23.80;92.90;;;;;;5035210;28;20372;-71
2023/07/04 07:26:57;;;;;;;0.60;0.60;;;23.90;93.70;;;;;;5035306;28;20195;-70
2023/07/04 07:29:24;;;;;;;0.40;0.40;;;24.10;93.70;;;;;;5033896;28;20209;-72
2023/07/04 07:31:50;;;;;;;0.60;0.60;;;24.10;92.10;;;;;;5035006;28;20456;-70
2023/07/04 07:34:17;;;;;;;0.50;0.50;;;24.10;93.30;;;;;;5035424;28;20492;-72
2023/07/04 07:36:44;;;;;;;0.87;0.70;;;24.10;91.60;;;;;;5035208;28;20245;-71
2023/07/04 07:39:13;;;;;;;0.40;0.40;;;24.10;90.80;;;;;;5035137;28;20392;-72
2023/07/04 07:41:42;;;;;;;0.50;0.50;;;24.10;90.50;;;;;;5034988;28;20808;-72
2023/07/04 07:44:08;;;;;;;0.70;0.70;;;24.10;90.00;;;;;;5035044;28;20450;-71
2023/07/04 07:46:35;;;;;;;0.60;0.60;;;24.20;91.10;;;;;;5034159;28;20824;-72
2023/07/04 07:49:01;;;;;;;0.60;0.60;;;24.00;91.10;;;;;;5035025;28;20548;-72
2023/07/04 07:51:27;;;;;;;0.80;0.80;;;23.90;90.80;;;;;;5034905;28;20380;-72
2023/07/04 07:53:54;;;;;;;1.23;0.90;;;24.10;91.20;;;;;;5034909;28;20410;-72
2023/07/04 07:56:22;;;;;;;1.53;0.80;;;24.60;90.30;;;;;;5034650;28;20399;-71
2023/07/04 07:58:49;;;;;;;0.50;0.50;;;25.20;87.20;;;;;;5035097;28;20415;-70
2023/07/04 08:01:18;;;;;;;0.80;0.53;;;25.10;85.30;;;;;;5034481;28;20847;-72
2023/07/04 08:03:45;;;;;;;0.90;0.90;;;25.20;87.60;;;;;;5034559;28;20380;-72
2023/07/04 08:06:42;;;;;;;0.50;0.50;;;24.90;95.60;;;;;;5034247;28;20424;-71
2023/07/04 08:09:10;;;;;;;0.40;0.40;;;25.00;85.00;;;;;;5021873;28;20473;-70
2023/07/04 08:11:41;;;;;;;0.40;0.40;;;25.00;86.80;;;;;;5034558;28;20410;-71
2023/07/04 08:14:07;;;;;;;0.40;0.40;;;24.90;89.60;;;;;;5034745;28;20420;-70
2023/07/04 08:16:46;;;;;;;0.47;0.47;;;24.70;85.10;;;;;;5034825;28;20449;-71
2023/07/04 08:19:15;;;;;;;0.50;0.50;;;24.70;85.50;;;;;;5035057;28;20885;-70
2023/07/04 08:21:41;;;;;;;0.97;0.80;;;25.00;87.70;;;;;;5034083;28;20420;-72
2023/07/04 08:24:10;;;;;;;0.67;0.57;;;26.40;88.00;;;;;;5034168;28;20500;-71
2023/07/04 08:26:38;;;;;;;0.80;0.63;;;27.40;81.60;;;;;;5033141;28;20195;-71
2023/07/04 08:29:05;;;;;;;0.90;0.40;;;27.60;81.10;;;;;;5033563;28;20514;-71
2023/07/04 08:31:31;;;;;;;0.47;0.47;;;27.00;78.40;;;;;;5034184;28;20416;-71
2023/07/04 08:33:57;;;;;;;0.50;0.50;;;26.10;79.60;;;;;;5034020;28;20406;-71
2023/07/04 08:36:22;;;;;;;0.60;0.60;;;25.70;81.40;;;;;;5033981;28;20226;-71
2023/07/04 08:38:50;;;;;;;0.60;0.40;;;25.60;79.90;;;;;;5034162;28;20178;-72
2023/07/04 08:41:39;;;;;;;0.60;0.50;;;25.80;82.20;;;;;;5034149;28;20178;-70
2023/07/04 08:44:16;;;;;;;0.40;0.40;;;25.90;81.20;;;;;;5034011;28;20418;-72
2023/07/04 08:46:47;;;;;;;0.40;0.40;;;25.60;84.50;;;;;;5033694;28;20508;-71
2023/07/04 08:50:06;;;;;;;0.40;0.40;;;25.20;78.90;;;;;;5034048;28;20452;-72
2023/07/04 08:52:38;;;;;;;1.00;0.87;;;25.00;83.50;;;;;;4972794;28;20400;-72
2023/07/04 08:55:11;;;;;;;0.50;0.50;;;24.80;84.40;;;;;;5031173;28;20469;-72
2023/07/04 08:57:45;;;;;;;0.30;0.30;;;24.60;84.70;;;;;;5033332;28;20467;-71
2023/07/04 09:00:22;;;;;;;0.50;0.50;;;24.10;85.00;;;;;;5033461;28;20488;-71
2023/07/04 09:03:22;;;;;;;0.40;0.40;;;23.40;84.00;;;;;;5033748;28;20709;-72
2023/07/04 09:06:12;;;;;;;0.50;0.50;;;23.00;89.70;;;;;;5033903;28;20380;-70
2023/07/04 09:09:10;;;;;;;0.40;0.40;;;22.70;88.60;;;;;;5033645;28;20453;-71
2023/07/04 09:11:37;;;;;;;0.50;0.43;;;22.60;90.90;;;;;;5033461;28;20406;-71
2023/07/04 09:14:23;;;;;;;0.57;0.40;;;22.80;90.50;;;;;;5033620;28;20402;-72
2023/07/04 09:16:51;;;;;;;0.50;0.50;;;23.00;91.70;;;;;;5033794;28;20429;-71
2023/07/04 09:19:19;;;;;;;1.33;0.60;;;23.10;90.20;;;;;;5033440;28;20889;-71
2023/07/04 09:21:45;;;;;;;0.97;0.60;;;23.50;91.20;;;;;;5033317;28;20458;-71
2023/07/04 09:24:11;;;;;;;0.73;0.73;;;23.80;89.10;;;;;;5033311;28;20948;-70
2023/07/04 09:26:55;;;;;;;0.40;0.40;;;23.90;87.60;;;;;;5033232;28;20288;-72
2023/07/04 09:29:23;;;;;;;0.50;0.50;;;23.80;87.30;;;;;;5033386;28;20420;-71
2023/07/04 09:32:00;;;;;;;0.50;0.50;;;23.70;88.80;;;;;;5033262;28;20405;-71
2023/07/04 09:34:35;;;;;;;1.70;0.57;;;23.50;88.70;;;;;;5033475;28;20401;-71
2023/07/04 09:37:10;;;;;;;0.50;0.50;;;23.30;87.60;;;;;;5033224;28;20962;-71
2023/07/04 09:39:56;;;;;;;0.60;0.40;;;23.20;89.10;;;;;;5033348;28;20431;-71
2023/07/04 09:42:41;;;;;;;0.60;0.60;;;23.10;89.50;;;;;;5033004;28;20409;-72
2023/07/04 09:45:11;;;;;;;0.50;0.50;;;22.50;90.50;;;;;;5033205;28;20405;-72
2023/07/04 09:47:44;;;;;;;0.83;0.50;;;22.20;89.40;;;;;;5032911;28;20456;-71
2023/07/04 09:50:15;;;;;;;0.30;0.30;;;22.20;91.40;;;;;;5033215;28;20829;-72
2023/07/04 09:52:42;;;;;;;0.50;0.40;;;22.20;92.00;;;;;;5033011;28;20455;-71
2023/07/04 09:55:24;;;;;;;0.70;0.70;;;22.10;92.00;;;;;;5032492;28;20392;-72
2023/07/04 09:57:50;;;;;;;0.40;0.40;;;22.20;92.40;;;;;;5032845;28;20749;-71
2023/07/04 10:00:20;;;;;;;0.80;0.60;;;22.50;92.40;;;;;;5031335;28;20443;-71
2023/07/04 10:02:54;;;;;;;0.60;0.43;;;22.40;91.20;;;;;;5032860;28;20175;-70
2023/07/04 10:05:31;;;;;;;0.33;0.33;;;22.60;91.80;;;;;;5033004;28;20372;-70
2023/07/04 10:08:06;;;;;;;0.37;0.37;;;22.80;92.00;;;;;;5032871;28;20413;-70
2023/07/04 10:10:44;;;;;;;0.60;0.50;;;22.80;91.10;;;;;;5035190;28;20405;-71
2023/07/04 10:13:12;;;;;;;0.43;0.40;;;22.80;90.90;;;;;;5036654;28;20804;-71
2023/07/04 10:15:45;;;;;;;0.40;0.40;;;23.10;91.50;;;;;;5036800;28;20402;-72
2023/07/04 10:18:26;;;;;;;0.50;0.50;;;23.50;90.20;;;;;;5036720;28;20951;-71
2023/07/04 10:20:54;;;;;;;0.43;0.43;;;23.90;90.70;;;;;;5036423;28;20409;-72
2023/07/04 10:23:22;;;;;;;0.60;0.50;;;24.30;87.20;;;;;;5036542;28;20376;-70
2023/07/04 10:25:50;;;;;;;0.43;0.43;;;24.70;88.30;;;;;;5036714;28;20416;-71
2023/07/04 10:28:19;;;;;;;0.43;0.43;;;25.00;86.30;;;;;;5036253;28;21050;-71
2023/07/04 10:30:50;;;;;;;0.83;0.83;;;24.80;88.40;;;;;;5036529;28;20420;-72
2023/07/04 10:33:26;;;;;;;0.50;0.50;;;24.70;87.60;;;;;;5036516;28;20404;-70
2023/07/04 10:35:52;;;;;;;0.40;0.40;;;24.70;83.90;;;;;;5036648;28;20369;-72
2023/07/04 10:38:45;;;;;;;0.50;0.50;;;24.60;83.90;;;;;;5036360;28;20764;-71
2023/07/04 10:41:31;;;;;;;0.40;0.40;;;24.70;87.70;;;;;;5036144;28;20492;-71
2023/07/04 10:44:03;;;;;;;0.40;0.40;;;25.20;89.50;;;;;;5005583;28;20413;-72
2023/07/04 10:46:32;;;;;;;0.40;0.30;;;25.60;83.90;;;;;;5035985;28;20434;-72
2023/07/04 10:49:04;;;;;;;0.60;0.60;;;26.20;84.60;;;;;;5035915;28;20459;-71
2023/07/04 10:51:35;;;;;;;0.53;0.47;;;26.70;77.50;;;;;;5035990;28;20414;-72
2023/07/04 10:54:00;;;;;;;0.60;0.40;;;27.00;79.00;;;;;;5036296;28;20425;-70
2023/07/04 10:56:32;;;;;;;0.50;0.40;;;26.80;74.30;;;;;;5035847;28;20426;-71
2023/07/04 10:59:06;;;;;;;0.40;0.40;;;26.70;74.50;;;;;;5035901;28;20257;-71
2023/07/04 11:01:40;;;;;;;0.33;0.33;;;26.30;71.30;;;;;;5035602;28;20410;-71
2023/07/04 11:04:18;;;;;;;0.43;0.40;;;25.90;80.60;;;;;;5035943;28;20402;-71
2023/07/04 11:07:06;;;;;;;0.30;0.30;;;25.70;78.60;;;;;;5035837;28;20411;-72
2023/07/04 11:09:39;;;;;;;0.30;0.30;;;25.60;75.20;;;;;;5035378;28;20880;-70
2023/07/04 11:12:08;;;;;;;1.23;0.40;;;25.60;85.10;;;;;;5035551;28;20402;-71
2023/07/04 11:14:39;;;;;;;0.40;0.30;;;25.50;80.90;;;;;;5035555;28;20395;-71
2023/07/04 11:17:11;;;;;;;0.43;0.43;;;25.60;74.30;;;;;;5035636;28;20425;-71
2023/07/04 11:19:55;;;;;;;0.40;0.40;;;25.60;79.60;;;;;;5035647;28;20902;-71
2023/07/04 11:22:52;;;;;;;0.60;0.47;;;25.80;82.50;;;;;;5034339;28;20384;-71
2023/07/04 11:25:26;;;;;;;0.40;0.40;;;25.40;76.50;;;;;;5035803;28;20394;-72
2023/07/04 11:28:29;;;;;;;0.40;0.40;;;24.80;79.90;;;;;;5035150;28;20429;-72
2023/07/04 11:31:21;;;;;;;0.67;0.60;;;24.50;78.00;;;;;;5035256;28;20783;-71
2023/07/04 11:33:52;;;;;;;0.40;0.40;;;24.60;83.10;;;;;;5027559;28;20384;-72
2023/07/04 11:36:26;;;;;;;0.40;0.40;;;24.70;96.30;;;;;;5035191;28;20797;-72
2023/07/04 11:38:57;;;;;;;0.30;0.30;;;24.70;83.00;;;;;;5035142;28;20732;-70
2023/07/04 11:41:31;;;;;;;0.47;0.47;;;24.80;80.00;;;;;;5035037;28;20880;-70
2023/07/04 11:44:13;;;;;;;0.60;0.50;;;24.40;78.40;;;;;;5035013;28;20436;-72
2023/07/04 11:46:41;;;;;;;0.33;0.33;;;24.40;78.60;;;;;;5034894;28;20428;-71
2023/07/04 11:49:18;;;;;;;0.40;0.40;;;24.60;78.70;;;;;;5034826;28;20951;-72
2023/07/04 11:51:44;;;;;;;0.60;0.60;;;24.20;76.80;;;;;;5034795;28;20397;-72
2023/07/04 11:54:11;;;;;;;0.30;0.30;;;24.10;77.60;;;;;;5034668;28;20398;-71
2023/07/04 11:56:41;;;;;;;0.30;0.30;;;23.80;80.80;;;;;;5034685;28;20434;-72
2023/07/04 11:59:18;;;;;;;0.37;0.37;;;24.00;82.30;;;;;;5034755;28;20384;-71
2023/07/04 12:01:55;;;;;;;0.40;0.40;;;24.20;84.30;;;;;;5034792;28;20415;-72
2023/07/04 12:04:35;;;;;;;0.40;0.40;;;24.20;78.30;;;;;;5034777;28;20853;-71
2023/07/04 12:07:05;;;;;;;0.40;0.40;;;24.10;84.50;;;;;;5034546;28;20490;-71
2023/07/04 12:09:48;;;;;;;0.50;0.40;;;24.10;79.50;;;;;;5034476;28;20457;-71
2023/07/04 12:12:20;;;;;;;0.40;0.40;;;24.20;84.20;;;;;;5034341;28;20463;-70
2023/07/04 12:14:48;;;;;;;0.40;0.40;;;24.30;82.00;;;;;;5034435;28;20408;-71
2023/07/04 12:17:15;;;;;;;0.50;0.50;;;24.50;80.20;;;;;;5034338;28;20421;-71
2023/07/04 12:19:42;;;;;;;0.40;0.40;;;24.70;85.50;;;;;;5034377;28;20402;-71
2023/07/04 12:22:16;;;;;;;0.30;0.30;;;24.80;86.90;;;;;;5034282;28;20443;-72
2023/07/04 12:24:44;;;;;;;0.40;0.40;;;24.50;79.30;;;;;;5034549;28;20938;-70
2023/07/04 12:27:10;;;;;;;0.50;0.40;;;24.40;83.20;;;;;;5034122;28;20429;-71
2023/07/04 12:29:44;;;;;;;0.43;0.40;;;24.40;82.30;;;;;;5034063;28;20452;-71
2023/07/04 12:32:18;;;;;;;0.40;0.40;;;24.50;80.90;;;;;;5034100;28;20189;-72
2023/07/04 12:34:44;;;;;;;0.40;0.40;;;24.50;79.40;;;;;;5034362;28;20809;-72
2023/07/04 12:37:16;;;;;;;0.30;0.30;;;24.60;84.30;;;;;;5034080;28;20432;-72
2023/07/04 12:39:45;;;;;;;0.47;0.47;;;24.50;77.90;;;;;;5033975;28;20179;-71
2023/07/04 12:42:27;;;;;;;0.40;0.40;;;24.30;77.10;;;;;;5034090;28;20404;-71
2023/07/04 12:44:52;;;;;;;0.30;0.30;;;24.30;78.10;;;;;;5034021;28;20408;-71
2023/07/04 12:47:30;;;;;;;0.40;0.40;;;24.30;81.80;;;;;;5033871;28;20496;-72
2023/07/04 12:49:58;;;;;;;0.40;0.40;;;24.40;77.20;;;;;;5033871;28;20191;-70
2023/07/04 12:52:30;;;;;;;0.30;0.30;;;24.40;77.60;;;;;;5033588;28;20913;-72
2023/07/04 12:54:57;;;;;;;0.30;0.30;;;24.40;75.50;;;;;;5034016;28;20979;-71
2023/07/04 12:57:26;;;;;;;0.60;0.50;;;24.40;77.60;;;;;;5033568;28;20921;-72
2023/07/04 12:59:51;;;;;;;0.40;0.40;;;24.50;82.10;;;;;;5032688;28;20409;-72
2023/07/04 13:02:23;;;;;;;0.37;0.33;;;24.30;76.90;;;;;;5033389;28;20409;-72